createdAt,value
2018-09-08T00:00:54.048Z,76.90
2018-09-08T00:03:21.391Z,76.90
2018-09-08T00:05:48.845Z,77.10
2018-09-08T00:08:16.202Z,77.20
2018-09-08T00:10:43.547Z,77.30
2018-09-08T00:13:10.850Z,77.30
2018-09-08T00:15:43.974Z,77.50
2018-09-08T00:18:16.917Z,77.80
2018-09-08T00:20:50.743Z,77.60
2018-09-08T00:23:23.837Z,77.60
2018-09-08T00:25:57.055Z,77.60
2018-09-08T00:28:29.893Z,77.60
2018-09-08T00:30:57.656Z,77.70
2018-09-08T00:33:25.012Z,77.70
2018-09-08T00:35:52.358Z,77.80
2018-09-08T00:38:19.766Z,77.90
2018-09-08T00:40:47.070Z,77.60
2018-09-08T00:43:14.445Z,77.70
2018-09-08T00:45:41.858Z,77.90
2018-09-08T00:48:09.268Z,78.00
2018-09-08T00:50:36.666Z,78.00
2018-09-08T00:53:04.015Z,78.20
2018-09-08T00:55:31.411Z,78.10
2018-09-08T00:57:58.734Z,78.30
2018-09-08T01:00:26.085Z,78.30
2018-09-08T01:02:53.444Z,79.10
2018-09-08T01:05:20.837Z,78.50
2018-09-08T01:07:48.192Z,78.40
2018-09-08T01:10:15.519Z,78.50
2018-09-08T01:12:42.895Z,78.60
2018-09-08T01:15:10.326Z,78.60
2018-09-08T01:17:37.683Z,78.60
2018-09-08T01:20:05.382Z,78.70
2018-09-08T01:22:32.954Z,78.80
2018-09-08T01:25:00.355Z,78.90
2018-09-08T01:27:27.700Z,79.00
2018-09-08T01:29:55.043Z,79.20
2018-09-08T01:32:22.434Z,79.20
2018-09-08T01:34:50.677Z,79.20
2018-09-08T01:37:18.039Z,79.40
2018-09-08T01:39:45.437Z,79.60
2018-09-08T01:42:12.902Z,79.70
2018-09-08T01:44:40.217Z,79.80
2018-09-08T01:47:07.590Z,79.90
2018-09-08T01:49:35.114Z,80.00
2018-09-08T01:52:02.530Z,80.00
2018-09-08T01:54:30.113Z,80.10
2018-09-08T01:56:57.451Z,80.10
2018-09-08T01:59:24.792Z,80.30
2018-09-08T02:01:52.170Z,80.30
2018-09-08T02:04:19.495Z,80.20
2018-09-08T02:06:46.848Z,80.30
2018-09-08T02:09:14.117Z,80.50
2018-09-08T02:11:41.455Z,80.50
2018-09-08T02:14:08.785Z,80.70
2018-09-08T02:16:36.082Z,80.70
2018-09-08T02:19:03.502Z,80.70
2018-09-08T02:21:30.850Z,80.60
2018-09-08T02:23:58.360Z,80.70
2018-09-08T02:26:25.711Z,80.80
2018-09-08T02:28:53.107Z,80.90
2018-09-08T02:31:20.490Z,81.10
2018-09-08T02:33:47.861Z,81.40
2018-09-08T02:36:15.323Z,81.10
2018-09-08T02:38:42.654Z,81.30
2018-09-08T02:41:09.967Z,81.40
2018-09-08T02:43:37.368Z,81.70
2018-09-08T02:46:04.988Z,81.70
2018-09-08T02:48:32.307Z,81.80
2018-09-08T02:50:58.724Z,81.90
2018-09-08T02:53:25.190Z,82.20
2018-09-08T02:55:51.612Z,82.20
2018-09-08T02:58:18.063Z,82.30
2018-09-08T03:00:44.589Z,83.10
2018-09-08T03:03:11.011Z,82.50
2018-09-08T03:05:37.462Z,81.80
2018-09-08T03:08:03.902Z,82.60
2018-09-08T03:10:30.334Z,82.70
2018-09-08T03:12:56.773Z,82.80
2018-09-08T03:15:23.198Z,82.90
2018-09-08T03:17:49.571Z,83.20
2018-09-08T03:20:15.982Z,83.30
2018-09-08T03:22:42.416Z,83.40
2018-09-08T03:25:08.819Z,83.60
2018-09-08T03:27:35.248Z,84.00
2018-09-08T03:30:01.691Z,83.90
2018-09-08T03:32:28.154Z,84.00
2018-09-08T03:34:54.593Z,84.20
2018-09-08T03:37:21.011Z,84.30
2018-09-08T03:39:47.421Z,84.60
2018-09-08T03:42:13.968Z,84.60
2018-09-08T03:44:40.505Z,85.50
2018-09-08T03:47:06.930Z,85.00
2018-09-08T03:49:33.593Z,85.30
2018-09-08T03:52:00.050Z,85.20
2018-09-08T03:54:26.592Z,85.20
2018-09-08T03:56:53.039Z,85.40
2018-09-08T03:59:19.498Z,85.40
2018-09-08T04:01:45.991Z,85.70
2018-09-08T04:04:13.275Z,85.60
2018-09-08T04:06:40.629Z,85.90
2018-09-08T04:09:09.205Z,86.00
2018-09-08T04:11:36.766Z,86.10
2018-09-08T04:14:04.175Z,86.30
2018-09-08T04:16:31.514Z,86.40
2018-09-08T04:18:58.818Z,86.50
2018-09-08T04:21:26.181Z,86.60
2018-09-08T04:23:53.582Z,86.70
2018-09-08T04:26:20.934Z,86.80
2018-09-08T04:28:48.307Z,86.90
2018-09-08T04:31:15.634Z,87.10
2018-09-08T04:33:43.002Z,87.20
2018-09-08T04:36:10.426Z,87.30
2018-09-08T04:38:37.808Z,87.30
2018-09-08T04:41:05.244Z,87.30
2018-09-08T04:43:32.506Z,87.50
2018-09-08T04:45:59.873Z,88.20
2018-09-08T04:48:27.220Z,87.50
2018-09-08T04:50:54.635Z,87.90
2018-09-08T04:53:22.016Z,88.00
2018-09-08T04:55:49.433Z,87.50
2018-09-08T04:58:16.854Z,87.60
2018-09-08T05:00:44.217Z,87.80
2018-09-08T05:03:11.527Z,87.80
2018-09-08T05:05:38.945Z,87.90
2018-09-08T05:08:06.317Z,88.10
2018-09-08T05:10:33.705Z,88.30
2018-09-08T05:13:01.121Z,88.40
2018-09-08T05:15:28.822Z,88.50
2018-09-08T05:17:56.246Z,88.50
2018-09-08T05:20:23.654Z,88.80
2018-09-08T05:22:51.010Z,88.60
2018-09-08T05:25:18.426Z,88.80
2018-09-08T05:27:45.767Z,88.80
2018-09-08T05:30:13.206Z,89.00
2018-09-08T05:32:40.718Z,89.10
2018-09-08T05:35:08.552Z,89.20
2018-09-08T05:37:35.774Z,89.40
2018-09-08T05:40:03.677Z,89.50
2018-09-08T05:42:31.266Z,89.60
2018-09-08T05:44:58.649Z,89.80
2018-09-08T05:47:26.019Z,90.30
2018-09-08T05:49:53.394Z,89.90
2018-09-08T05:52:20.683Z,90.00
2018-09-08T05:54:48.046Z,90.00
2018-09-08T05:57:15.461Z,90.00
2018-09-08T05:59:42.779Z,90.10
2018-09-08T06:02:10.143Z,90.10
2018-09-08T06:04:37.566Z,90.20
2018-09-08T06:07:05.590Z,90.20
2018-09-08T06:09:33.850Z,90.20
2018-09-08T06:12:01.356Z,90.20
2018-09-08T06:14:29.952Z,90.30
2018-09-08T06:16:57.239Z,90.70
2018-09-08T06:19:24.566Z,90.50
2018-09-08T06:21:51.950Z,90.60
2018-09-08T06:24:19.529Z,90.70
2018-09-08T06:26:46.903Z,90.80
2018-09-08T06:29:14.299Z,90.80
2018-09-08T06:31:42.397Z,90.80
2018-09-08T06:34:09.765Z,90.80
2018-09-08T06:36:37.094Z,90.90
2018-09-08T06:39:07.095Z,91.00
2018-09-08T06:41:34.639Z,91.10
2018-09-08T06:44:02.181Z,91.20
2018-09-08T06:46:29.843Z,91.20
2018-09-08T06:48:57.265Z,91.30
2018-09-08T06:51:24.641Z,91.30
2018-09-08T06:53:52.013Z,91.70
2018-09-08T06:56:19.442Z,91.50
2018-09-08T06:58:46.848Z,91.70
2018-09-08T07:01:14.237Z,91.80
2018-09-08T07:03:41.663Z,92.00
2018-09-08T07:06:09.032Z,92.20
2018-09-08T07:08:36.512Z,92.40
2018-09-08T07:11:04.291Z,92.40
2018-09-08T07:13:31.711Z,92.50
2018-09-08T07:15:59.181Z,92.50
2018-09-08T07:18:26.556Z,92.50
2018-09-08T07:20:54.001Z,92.60
2018-09-08T07:23:21.368Z,92.60
2018-09-08T07:25:48.731Z,92.80
2018-09-08T07:28:16.341Z,92.90
2018-09-08T07:30:43.649Z,92.90
2018-09-08T07:33:11.022Z,92.90
2018-09-08T07:35:38.328Z,92.90
2018-09-08T07:38:05.714Z,93.10
2018-09-08T07:40:33.216Z,93.00
2018-09-08T07:43:00.781Z,93.10
2018-09-08T07:45:28.306Z,93.20
2018-09-08T07:47:55.629Z,93.30
2018-09-08T07:50:23.107Z,93.20
2018-09-08T07:52:50.478Z,93.20
2018-09-08T07:55:17.954Z,93.30
2018-09-08T07:57:45.275Z,93.00
2018-09-08T08:00:12.818Z,93.30
2018-09-08T08:02:40.187Z,93.30
2018-09-08T08:05:07.863Z,93.30
2018-09-08T08:07:35.142Z,93.40
2018-09-08T08:10:02.628Z,93.50
2018-09-08T08:12:30.109Z,93.50
2018-09-08T08:14:57.579Z,93.50
2018-09-08T08:17:24.902Z,93.50
2018-09-08T08:19:52.472Z,93.60
2018-09-08T08:22:19.941Z,93.60
2018-09-08T08:24:47.291Z,93.70
2018-09-08T08:27:14.686Z,93.80
2018-09-08T08:29:42.090Z,93.80
2018-09-08T08:32:09.532Z,93.80
2018-09-08T08:34:37.414Z,93.70
2018-09-08T08:37:04.804Z,93.90
2018-09-08T08:42:11.585Z,94.00
2018-09-08T08:44:38.964Z,94.00
2018-09-08T08:47:06.318Z,94.00
2018-09-08T08:49:33.714Z,94.10
2018-09-08T08:52:12.698Z,94.20
2018-09-08T08:54:43.285Z,94.50
2018-09-08T08:57:10.712Z,94.50
2018-09-08T08:59:38.137Z,94.30
2018-09-08T09:02:05.604Z,94.30
2018-09-08T09:04:32.896Z,94.30
2018-09-08T09:07:00.287Z,94.20
2018-09-08T09:09:27.610Z,94.40
2018-09-08T09:11:55.425Z,94.20
2018-09-08T09:14:22.495Z,94.20
2018-09-08T09:16:49.953Z,94.10
2018-09-08T09:19:33.339Z,94.00
2018-09-08T09:22:13.191Z,93.80
2018-09-08T09:25:00.754Z,93.80
2018-09-08T09:27:28.794Z,93.90
2018-09-08T09:29:56.373Z,93.80
2018-09-08T09:32:23.653Z,93.80
2018-09-08T09:34:50.966Z,93.80
2018-09-08T09:37:18.663Z,93.70
2018-09-08T09:39:46.364Z,93.70
2018-09-08T09:42:13.733Z,93.70
2018-09-08T09:44:41.130Z,93.60
2018-09-08T09:47:08.535Z,93.00
2018-09-08T09:49:35.828Z,92.70
2018-09-08T09:52:03.348Z,92.50
2018-09-08T09:54:30.742Z,92.40
2018-09-08T09:56:58.123Z,92.50
2018-09-08T09:59:25.587Z,92.70
2018-09-08T10:01:58.779Z,93.00
2018-09-08T10:04:26.122Z,92.60
2018-09-08T10:06:53.911Z,92.20
2018-09-08T10:09:21.257Z,92.40
2018-09-08T10:11:48.612Z,91.90
2018-09-08T10:14:16.824Z,91.70
2018-09-08T10:16:44.187Z,91.50
2018-09-08T10:19:11.704Z,91.50
2018-09-08T10:21:39.296Z,91.10
2018-09-08T10:24:06.730Z,90.60
2018-09-08T10:26:34.185Z,90.80
2018-09-08T10:29:01.655Z,90.90
2018-09-08T10:31:29.046Z,91.00
2018-09-08T10:33:56.364Z,90.70
2018-09-08T10:36:23.758Z,90.50
2018-09-08T10:38:51.157Z,90.50
2018-09-08T10:41:18.698Z,90.50
2018-09-08T10:43:46.066Z,90.50
2018-09-08T10:46:13.714Z,90.50
2018-09-08T10:48:41.230Z,90.50
2018-09-08T10:51:49.806Z,90.50
2018-09-08T10:54:17.627Z,90.70
2018-09-08T10:56:44.935Z,91.00
2018-09-08T10:59:12.329Z,91.20
2018-09-08T11:01:39.938Z,91.30
2018-09-08T11:04:07.547Z,91.30
2018-09-08T11:06:35.102Z,90.90
2018-09-08T11:09:03.268Z,90.60
2018-09-08T11:11:30.617Z,90.50
2018-09-08T11:13:58.325Z,90.30
2018-09-08T11:16:25.827Z,90.20
2018-09-08T11:18:53.246Z,90.10
2018-09-08T11:21:20.659Z,90.00
2018-09-08T11:23:48.050Z,90.00
2018-09-08T11:26:15.710Z,90.00
2018-09-08T11:28:43.067Z,90.40
2018-09-08T11:31:10.542Z,90.40
2018-09-08T11:33:38.270Z,90.30
2018-09-08T11:36:05.866Z,90.30
2018-09-08T11:38:33.449Z,90.10
2018-09-08T11:41:00.786Z,90.50
2018-09-08T11:43:28.181Z,90.20
2018-09-08T11:45:55.572Z,90.20
2018-09-08T11:48:23.117Z,90.10
2018-09-08T11:50:50.682Z,89.60
2018-09-08T11:53:18.095Z,89.20
2018-09-08T11:55:45.737Z,89.20
2018-09-08T11:58:13.129Z,90.00
2018-09-08T12:00:40.597Z,88.90
2018-09-08T12:03:08.079Z,88.00
2018-09-08T12:05:35.595Z,88.70
2018-09-08T12:08:03.280Z,89.00
2018-09-08T12:10:31.199Z,89.20
2018-09-08T12:12:58.557Z,88.60
2018-09-08T12:15:26.039Z,87.50
2018-09-08T12:17:53.563Z,86.90
2018-09-08T12:20:20.897Z,86.80
2018-09-08T12:22:48.412Z,86.60
2018-09-08T12:25:15.974Z,86.30
2018-09-08T12:27:43.345Z,85.70
2018-09-08T12:30:10.994Z,85.40
2018-09-08T12:32:38.486Z,84.80
2018-09-08T12:35:06.278Z,85.00
2018-09-08T12:37:33.594Z,85.10
2018-09-08T12:40:01.149Z,84.00
2018-09-08T12:42:28.514Z,83.20
2018-09-08T12:44:56.002Z,82.90
2018-09-08T12:47:23.591Z,82.50
2018-09-08T12:49:50.922Z,82.50
2018-09-08T12:52:18.408Z,82.60
2018-09-08T12:54:45.741Z,82.60
2018-09-08T12:57:13.091Z,83.60
2018-09-08T12:59:40.686Z,83.90
2018-09-08T13:02:07.970Z,83.50
2018-09-08T13:04:35.545Z,83.10
2018-09-08T13:07:02.942Z,82.80
2018-09-08T13:09:30.361Z,82.70
2018-09-08T13:11:58.095Z,82.70
2018-09-08T13:14:25.535Z,82.90
2018-09-08T13:16:52.881Z,83.10
2018-09-08T13:19:20.967Z,83.40
2018-09-08T13:21:48.617Z,83.10
2018-09-08T13:24:15.991Z,82.80
2018-09-08T13:26:43.758Z,82.80
2018-09-08T13:31:39.855Z,82.50
2018-09-08T13:34:07.256Z,82.40
2018-09-08T13:36:34.801Z,82.10
2018-09-08T13:39:02.273Z,82.10
2018-09-08T13:41:29.553Z,81.80
2018-09-08T13:43:57.065Z,81.70
2018-09-08T13:46:24.456Z,82.00
2018-09-08T13:48:51.945Z,82.30
2018-09-08T13:51:19.477Z,82.30
2018-09-08T13:53:47.105Z,82.30
2018-09-08T13:56:14.646Z,82.00
2018-09-08T13:58:42.090Z,81.70
2018-09-08T14:01:09.515Z,81.30
2018-09-08T14:03:36.866Z,81.40
2018-09-08T14:06:05.439Z,81.30
2018-09-08T14:08:33.092Z,81.70
2018-09-08T14:11:00.491Z,82.00
2018-09-08T14:13:27.895Z,81.70
2018-09-08T14:15:55.338Z,81.70
2018-09-08T14:18:22.736Z,81.40
2018-09-08T14:20:50.054Z,81.60
2018-09-08T14:23:17.442Z,81.20
2018-09-08T14:25:44.782Z,81.30
2018-09-08T14:28:12.123Z,81.20
2018-09-08T14:30:39.594Z,80.80
2018-09-08T14:33:07.079Z,80.40
2018-09-08T14:35:34.558Z,80.20
2018-09-08T14:38:01.975Z,80.00
2018-09-08T14:40:29.370Z,79.80
2018-09-08T14:42:56.706Z,79.60
2018-09-08T14:45:24.383Z,79.90
2018-09-08T14:47:51.810Z,80.00
2018-09-08T14:50:19.399Z,79.90
2018-09-08T14:52:46.774Z,80.50
2018-09-08T14:55:14.226Z,79.90
2018-09-08T14:57:41.621Z,80.00
2018-09-08T15:00:09.022Z,80.40
2018-09-08T15:02:36.479Z,80.70
2018-09-08T15:05:04.010Z,81.10
2018-09-08T15:07:31.459Z,80.80
2018-09-08T15:09:58.811Z,80.60
2018-09-08T15:12:26.382Z,80.50
2018-09-08T15:14:53.674Z,80.50
2018-09-08T15:17:21.017Z,80.40
2018-09-08T15:19:48.321Z,80.00
2018-09-08T15:22:15.669Z,79.80
2018-09-08T15:24:43.046Z,79.80
2018-09-08T15:27:10.443Z,79.80
2018-09-08T15:29:37.786Z,79.90
2018-09-08T15:32:05.179Z,79.80
2018-09-08T15:34:32.635Z,79.80
2018-09-08T15:37:00.022Z,80.00
2018-09-08T15:39:27.354Z,80.30
2018-09-08T15:41:54.746Z,80.70
2018-09-08T15:44:22.105Z,80.40
2018-09-08T15:46:49.501Z,80.50
2018-09-08T15:49:16.903Z,80.40
2018-09-08T15:51:44.321Z,80.40
2018-09-08T15:54:11.732Z,80.40
2018-09-08T15:56:39.580Z,80.40
2018-09-08T15:59:07.137Z,80.40
2018-09-08T16:01:34.488Z,80.50
2018-09-08T16:04:01.878Z,81.30
2018-09-08T16:06:29.386Z,80.70
2018-09-08T16:08:56.741Z,80.30
2018-09-08T16:11:24.105Z,80.30
2018-09-08T16:13:51.448Z,80.40
2018-09-08T16:16:18.749Z,80.50
2018-09-08T16:18:46.158Z,80.60
2018-09-08T16:21:13.473Z,80.70
2018-09-08T16:23:40.733Z,80.50
2018-09-08T16:26:08.251Z,80.70
2018-09-08T16:28:35.627Z,80.90
2018-09-08T16:31:03.618Z,81.10
2018-09-08T16:33:31.153Z,81.30
2018-09-08T16:36:05.400Z,82.10
2018-09-08T16:38:32.924Z,81.40
2018-09-08T16:41:00.406Z,81.50
2018-09-08T16:43:27.965Z,81.50
2018-09-08T16:45:55.457Z,81.50
2018-09-08T16:48:22.829Z,82.30
2018-09-08T16:50:50.300Z,81.50
2018-09-08T16:53:17.720Z,81.50
2018-09-08T16:55:45.302Z,81.50
2018-09-08T16:58:12.841Z,81.60
2018-09-08T17:00:40.385Z,81.70
2018-09-08T17:03:07.758Z,81.70
2018-09-08T17:05:35.377Z,81.80
2018-09-08T17:08:02.733Z,81.80
2018-09-08T17:10:30.349Z,81.90
2018-09-08T17:12:57.998Z,81.90
2018-09-08T17:15:25.333Z,81.90
2018-09-08T17:17:52.768Z,81.80
2018-09-08T17:20:20.239Z,81.70
2018-09-08T17:22:47.918Z,82.50
2018-09-08T17:25:15.163Z,81.70
2018-09-08T17:27:42.585Z,81.80
2018-09-08T17:30:10.121Z,82.00
2018-09-08T17:32:37.520Z,82.00
2018-09-08T17:35:04.910Z,82.10
2018-09-08T17:37:32.214Z,82.20
2018-09-08T17:39:59.814Z,82.10
2018-09-08T17:42:27.344Z,82.10
2018-09-08T17:44:54.705Z,82.20
2018-09-08T17:47:22.188Z,82.30
2018-09-08T17:49:49.732Z,82.40
2018-09-08T17:52:17.225Z,82.40
2018-09-08T17:54:44.510Z,82.30
2018-09-08T17:57:11.807Z,82.50
2018-09-08T17:59:39.185Z,82.40
2018-09-08T18:02:06.602Z,82.40
2018-09-08T18:04:34.113Z,82.50
2018-09-08T18:07:01.497Z,82.50
2018-09-08T18:09:28.765Z,82.80
2018-09-08T18:11:56.152Z,83.00
2018-09-08T18:14:23.679Z,83.50
2018-09-08T18:16:51.298Z,83.80
2018-09-08T18:19:18.873Z,84.10
2018-09-08T18:21:46.262Z,84.50
2018-09-08T18:24:13.905Z,84.60
2018-09-08T18:26:41.257Z,84.60
2018-09-08T18:29:09.005Z,84.30
2018-09-08T18:31:36.538Z,84.10
2018-09-08T18:34:04.125Z,84.20
2018-09-08T18:36:31.654Z,84.50
2018-09-08T18:38:59.028Z,84.60
2018-09-08T18:41:26.744Z,84.70
2018-09-08T18:43:54.038Z,84.70
2018-09-08T18:46:21.609Z,85.50
2018-09-08T18:48:49.107Z,84.90
2018-09-08T18:51:16.620Z,85.10
2018-09-08T18:53:44.201Z,85.30
2018-09-08T18:56:11.573Z,85.50
2018-09-08T18:58:38.843Z,85.80
2018-09-08T19:01:06.274Z,85.90
2018-09-08T19:03:33.853Z,86.60
2018-09-08T19:06:01.181Z,86.40
2018-09-08T19:08:34.535Z,86.30
2018-09-08T19:11:01.946Z,86.30
2018-09-08T19:13:29.209Z,86.50
2018-09-08T19:15:56.742Z,86.80
2018-09-08T19:18:24.094Z,87.10
2018-09-08T19:20:51.683Z,87.40
2018-09-08T19:23:19.022Z,87.60
2018-09-08T19:25:46.548Z,87.80
2018-09-08T19:28:13.854Z,88.00
2018-09-08T19:30:41.561Z,88.00
2018-09-08T19:33:08.993Z,87.80
2018-09-08T19:35:38.422Z,87.90
2018-09-08T19:38:06.038Z,87.90
2018-09-08T19:40:39.381Z,87.90
2018-09-08T19:43:07.306Z,87.80
2018-09-08T19:45:35.030Z,87.70
2018-09-08T19:48:04.086Z,87.80
2018-09-08T19:50:31.862Z,87.90
2018-09-08T19:53:05.129Z,88.10
2018-09-08T19:55:32.725Z,88.20
2018-09-08T19:58:05.821Z,88.40
2018-09-08T20:00:33.178Z,88.50
2018-09-08T20:03:00.909Z,88.90
2018-09-08T20:05:28.368Z,89.20
2018-09-08T20:07:55.769Z,89.70
2018-09-08T20:10:23.472Z,89.30
2018-09-08T20:12:50.814Z,89.50
2018-09-08T20:15:18.597Z,89.80
2018-09-08T20:17:46.004Z,90.00
2018-09-08T20:20:13.576Z,90.50
2018-09-08T20:22:41.075Z,90.30
2018-09-08T20:25:08.699Z,90.40
2018-09-08T20:27:36.143Z,90.50
2018-09-08T20:30:04.065Z,90.50
2018-09-08T20:32:31.459Z,90.60
2018-09-08T20:34:58.946Z,90.70
2018-09-08T20:37:26.367Z,90.80
2018-09-08T20:39:53.696Z,90.90
2018-09-08T20:42:21.185Z,91.00
2018-09-08T20:44:48.538Z,90.90
2018-09-08T20:47:15.984Z,91.00
2018-09-08T20:49:43.346Z,91.20
2018-09-08T20:52:10.882Z,91.00
2018-09-08T20:54:38.249Z,91.30
2018-09-08T20:57:05.579Z,91.40
2018-09-08T20:59:33.001Z,91.50
2018-09-08T21:02:00.321Z,91.50
2018-09-08T21:04:27.653Z,91.50
2018-09-08T21:06:54.957Z,91.60
2018-09-08T21:09:22.294Z,91.70
2018-09-08T21:11:50.090Z,91.80
2018-09-08T21:14:17.549Z,92.00
2018-09-08T21:16:44.894Z,92.10
2018-09-08T21:19:12.349Z,92.20
2018-09-08T21:21:39.676Z,92.30
2018-09-08T21:24:07.813Z,92.40
2018-09-08T21:26:35.209Z,92.50
2018-09-08T21:29:02.628Z,92.70
2018-09-08T21:31:30.060Z,92.80
2018-09-08T21:33:57.461Z,93.00
2018-09-08T21:36:24.839Z,93.10
2018-09-08T21:38:53.207Z,93.20
2018-09-08T21:41:20.557Z,93.30
2018-09-08T21:43:47.929Z,93.30
2018-09-08T21:46:15.329Z,93.40
2018-09-08T21:48:42.665Z,93.40
2018-09-08T21:51:10.004Z,93.50
2018-09-08T21:53:37.337Z,93.60
2018-09-08T21:56:04.877Z,93.60
2018-09-08T21:58:32.417Z,93.70
2018-09-08T22:01:32.913Z,93.90
2018-09-08T22:04:00.487Z,93.90
2018-09-08T22:06:27.942Z,94.10
2018-09-08T22:08:55.301Z,94.40
2018-09-08T22:11:22.765Z,94.20
2018-09-08T22:13:52.736Z,94.20
2018-09-08T22:16:20.093Z,94.20
2018-09-08T22:18:47.455Z,94.30
2018-09-08T22:21:14.974Z,94.30
2018-09-08T22:23:42.256Z,94.40
2018-09-08T22:26:09.687Z,94.40
2018-09-08T22:28:37.059Z,94.30
2018-09-08T22:31:04.789Z,94.30
2018-09-08T22:33:32.399Z,94.30
2018-09-08T22:35:59.694Z,94.20
2018-09-08T22:38:27.037Z,94.40
2018-09-08T22:40:54.554Z,94.20
2018-09-08T22:43:22.140Z,94.20
2018-09-08T22:45:49.419Z,94.30
2018-09-08T22:48:16.754Z,94.30
2018-09-08T22:50:45.129Z,94.30
2018-09-08T22:53:12.445Z,94.40
2018-09-08T22:55:39.790Z,94.40
2018-09-08T22:58:08.101Z,94.30
2018-09-08T23:00:35.511Z,94.30
2018-09-08T23:03:02.818Z,94.40
2018-09-08T23:05:30.267Z,94.50
2018-09-08T23:07:57.619Z,94.40
2018-09-08T23:10:25.101Z,94.40
2018-09-08T23:12:52.559Z,94.40
2018-09-08T23:15:19.899Z,94.40
2018-09-08T23:17:47.306Z,94.40
2018-09-08T23:20:14.642Z,94.40
2018-09-08T23:22:41.992Z,94.40
2018-09-08T23:25:09.333Z,94.40
2018-09-08T23:27:36.770Z,94.40
2018-09-08T23:30:04.318Z,94.40
2018-09-08T23:32:37.815Z,94.40
2018-09-08T23:35:11.239Z,94.70
2018-09-08T23:37:38.579Z,94.40
2018-09-08T23:40:05.902Z,94.40
2018-09-08T23:42:33.311Z,94.80
2018-09-08T23:45:00.655Z,94.50
2018-09-08T23:47:28.125Z,94.50
2018-09-08T23:49:55.526Z,94.40
2018-09-08T23:52:22.958Z,94.40
2018-09-08T23:54:50.582Z,94.40
2018-09-08T23:57:17.962Z,94.40
2018-09-08T23:59:45.294Z,94.40
